Chisholm Hibbing Airport
KHIB : now visible

Airfield :











YOU CAN JOIN US ON...

 
LOGIN :

Register | Disclaimer

   EN    FR    IT 

 









Legend :    VFR   Marginal VFR   IFR   Intensive IFR   Very Intensive IFR
Visi :
Ceiling :
>= 8 km
>= 3000ft
5 to 8 km
1000 to 3000 ft
1500m to 5 km
500 to 1000 ft
800 to 1500m
200 to 500 ft
< 800m
< 200 ft
Symbols :   Thunderstorms  Fog  Heavy snow  Heavy precipitations  Wind > 20 kt







- Airport Elevation : 1354 ft
- IATA code : HIB


KHIB - Chisholm Hibbing

CURRENT METAR :
  • 160600Z AUTO 00000KT 1/2SM FG CLR 10/10 A3001 RMK AO2 T01000100

EXPIRED METARs :
  • 160553Z AUTO 00000KT 1SM BR CLR 10/10 A3001 RMK AO2 SLP166 T01000100 10194 20100 402330100 51007
  • 160539Z AUTO 00000KT 3SM BR CLR 11/11 A3001 RMK AO2 T01110111
  • 160506Z AUTO 00000KT 3/4SM BR CLR 11/11 A3000 RMK AO2 VIS 1/2V3 T01110111
  • 160500Z AUTO 00000KT 2SM BR CLR 12/12 A3000 RMK AO2 VIS 3/4V5 T01170117
  • 160453Z AUTO 00000KT 3/4SM BR CLR 11/11 A3000 RMK AO2 SLP163 T01110111
  • 160420Z AUTO 00000KT 3/4SM BR CLR 12/12 A3000 RMK AO2 T01170117
  • 160406Z AUTO 00000KT 2 1/2SM BR CLR 12/12 A3000 RMK AO2 T01220122
  • 160353Z AUTO 00000KT 1/2SM FG CLR 12/12 A3000 RMK AO2 SLP163 T01220122
  • 160343Z AUTO 00000KT 10SM CLR 13/13 A3000 RMK AO2 T01280128
  • 160336Z AUTO 00000KT 2SM BR CLR 13/13 A2999 RMK AO2 T01280128
  • 160322Z AUTO 00000KT 1 3/4SM BR CLR 13/13 A2999 RMK AO2 T01280128
  • 160315Z AUTO 00000KT 2SM BR CLR 13/13 A2999 RMK AO2 T01330133

TAF KHIB
Valid from the 16 at 06:00 until the 17 at 06:00 UTC


160520Z 1606/1706 00000KT 3/4SM BR FEW150
FM160800 00000KT 1/2SM FG BKN005
FM161300 VRB03KT 4SM BR BKN005
FM161500 16007KT P6SM FEW200
FM161700 17010G21KT P6SM FEW200
FM170000 17007KT P6SM FEW200 WS020/20035KT
No reported NOTAMs for that airfield.



MET'MAP, your aeronautical weather chart ! - Copyright ORBIFLY December 2007 - Disclaimer

ORBIFLY MET'MAP TEAM :

Programming & Development : Alexandra Zaïnal
Concept & Development : Baudouin d'Aumeries
Co-Development & Prog : Marc-Olivier Méhu
Technical & hardware support : Manuel Goepfert

Contact : metmap@orbifly.com




SOURCES & CREDITS :

   NOAA       Earth
Advisory